createdAt,value
2022-09-22T00:01:40.012Z,10.80
2022-09-22T00:04:25.562Z,10.80
2022-09-22T00:07:11.108Z,10.70
2022-09-22T00:09:56.436Z,10.70
2022-09-22T00:12:41.926Z,10.70
2022-09-22T00:15:27.527Z,10.70
2022-09-22T00:18:12.855Z,10.60
2022-09-22T00:20:59.388Z,10.60
2022-09-22T00:23:46.638Z,10.60
2022-09-22T00:26:32.007Z,10.50
2022-09-22T00:29:18.099Z,10.60
2022-09-22T00:32:07.368Z,10.50
2022-09-22T00:34:52.772Z,10.50
2022-09-22T00:37:38.255Z,10.50
2022-09-22T00:40:24.075Z,10.50
2022-09-22T00:43:14.211Z,10.50
2022-09-22T00:46:27.273Z,10.50
2022-09-22T00:49:15.188Z,10.50
2022-09-22T00:52:01.455Z,10.40
2022-09-22T00:54:47.514Z,10.40
2022-09-22T00:57:36.861Z,10.40
2022-09-22T01:00:22.505Z,10.40
2022-09-22T01:03:12.013Z,10.40
2022-09-22T01:06:02.798Z,10.30
2022-09-22T01:08:48.267Z,10.40
2022-09-22T01:11:34.264Z,10.30
2022-09-22T01:14:32.195Z,10.30
2022-09-22T01:17:27.280Z,10.30
2022-09-22T01:20:56.185Z,10.20
2022-09-22T01:23:49.007Z,10.30
2022-09-22T01:26:55.556Z,10.20
2022-09-22T01:29:46.816Z,10.20
2022-09-22T01:32:53.732Z,10.10
2022-09-22T01:35:56.320Z,10.10
2022-09-22T01:39:19.155Z,10.10
2022-09-22T01:42:11.457Z,10.10
2022-09-22T01:45:04.684Z,10.10
2022-09-22T01:48:06.581Z,10.00
2022-09-22T01:51:05.877Z,10.00
2022-09-22T01:53:56.737Z,9.90
2022-09-22T01:56:45.860Z,9.90
2022-09-22T01:59:34.340Z,9.90
2022-09-22T02:02:26.712Z,9.90
2022-09-22T02:05:21.160Z,9.80
2022-09-22T02:08:15.059Z,9.80
2022-09-22T02:11:09.824Z,9.80
2022-09-22T02:13:55.420Z,9.70
2022-09-22T02:16:41.299Z,9.70
2022-09-22T02:19:37.690Z,9.70
2022-09-22T02:22:23.179Z,9.70
2022-09-22T02:25:10.611Z,9.60
2022-09-22T02:27:57.108Z,9.70
2022-09-22T02:31:10.573Z,9.60
2022-09-22T02:33:53.433Z,9.60
2022-09-22T02:36:41.872Z,9.60
2022-09-22T02:39:47.467Z,9.60
2022-09-22T02:42:35.234Z,9.60
2022-09-22T02:45:23.827Z,9.60
2022-09-22T02:48:51.425Z,9.60
2022-09-22T02:51:37.376Z,9.50
2022-09-22T02:54:23.204Z,9.50
2022-09-22T02:57:09.680Z,9.50
2022-09-22T02:59:55.119Z,9.50
2022-09-22T03:02:40.927Z,9.50
2022-09-22T03:05:26.346Z,9.40
2022-09-22T03:08:12.138Z,9.40
2022-09-22T03:10:57.674Z,9.40
2022-09-22T03:13:42.958Z,9.40
2022-09-22T03:16:28.507Z,9.40
2022-09-22T03:19:14.007Z,9.30
2022-09-22T03:21:59.720Z,9.30
2022-09-22T03:24:44.943Z,9.30
2022-09-22T03:27:30.479Z,9.30
2022-09-22T03:30:15.904Z,9.20
2022-09-22T03:33:01.623Z,9.20
2022-09-22T03:35:47.227Z,9.20
2022-09-22T03:38:33.003Z,9.20
2022-09-22T03:41:19.645Z,9.20
2022-09-22T03:44:05.985Z,9.20
2022-09-22T03:46:51.553Z,9.20
2022-09-22T03:49:36.610Z,9.20
2022-09-22T03:52:22.251Z,9.20
2022-09-22T03:55:08.280Z,9.20
2022-09-22T03:57:53.975Z,9.10
2022-09-22T04:00:39.426Z,9.10
2022-09-22T04:03:24.809Z,9.10
2022-09-22T04:06:10.612Z,9.10
2022-09-22T04:08:56.308Z,9.10
2022-09-22T04:11:41.969Z,9.10
2022-09-22T04:14:27.347Z,9.10
2022-09-22T04:17:13.400Z,9.00
2022-09-22T04:19:59.501Z,9.00
2022-09-22T04:22:45.217Z,9.00
2022-09-22T04:25:32.118Z,9.00
2022-09-22T04:28:17.434Z,8.90
2022-09-22T04:31:03.449Z,8.90
2022-09-22T04:33:48.792Z,8.90
2022-09-22T04:36:34.474Z,8.90
2022-09-22T04:39:23.664Z,8.90
2022-09-22T04:42:09.262Z,8.80
2022-09-22T04:44:57.388Z,8.80
2022-09-22T04:47:49.590Z,8.80
2022-09-22T04:50:34.931Z,8.80
2022-09-22T04:53:24.263Z,8.80
2022-09-22T04:56:09.864Z,8.80
2022-09-22T04:58:55.184Z,8.80
2022-09-22T05:01:40.770Z,8.80
2022-09-22T05:04:26.330Z,8.80
2022-09-22T05:07:11.605Z,8.80
2022-09-22T05:09:57.169Z,8.80
2022-09-22T05:12:43.868Z,8.80
2022-09-22T05:15:32.548Z,8.80
2022-09-22T05:18:18.234Z,8.70
2022-09-22T05:21:03.548Z,8.70
2022-09-22T05:23:49.271Z,8.70
2022-09-22T05:26:34.608Z,8.70
2022-09-22T05:29:22.540Z,8.70
2022-09-22T05:32:10.110Z,8.70
2022-09-22T05:34:55.467Z,8.70
2022-09-22T05:37:45.077Z,8.70
2022-09-22T05:40:31.112Z,8.70
2022-09-22T05:43:16.564Z,8.70
2022-09-22T05:46:02.154Z,8.70
2022-09-22T05:48:47.495Z,8.80
2022-09-22T05:51:33.092Z,8.80
2022-09-22T05:54:23.122Z,8.80
2022-09-22T05:57:08.794Z,8.90
2022-09-22T05:59:55.176Z,8.90
2022-09-22T06:02:44.047Z,9.00
2022-09-22T06:05:29.392Z,9.00
2022-09-22T06:08:14.883Z,9.10
2022-09-22T06:11:00.590Z,9.10
2022-09-22T06:13:46.052Z,9.20
2022-09-22T06:16:31.797Z,9.20
2022-09-22T06:19:26.751Z,9.30
2022-09-22T06:22:12.180Z,9.30
2022-09-22T06:24:57.331Z,9.40
2022-09-22T06:27:44.247Z,9.50
2022-09-22T06:30:30.920Z,9.50
2022-09-22T06:33:16.532Z,9.60
2022-09-22T06:36:02.418Z,9.60
2022-09-22T06:38:50.691Z,9.70
2022-09-22T06:41:35.832Z,9.80
2022-09-22T06:44:21.908Z,9.80
2022-09-22T06:47:08.986Z,9.90
2022-09-22T06:49:54.403Z,10.00
2022-09-22T06:52:41.404Z,10.00
2022-09-22T06:55:28.149Z,10.10
2022-09-22T06:58:15.212Z,10.20
2022-09-22T07:01:09.712Z,10.30
2022-09-22T07:03:55.656Z,10.40
2022-09-22T07:06:42.643Z,10.50
2022-09-22T07:09:27.938Z,10.50
2022-09-22T07:12:16.023Z,10.70
2022-09-22T07:15:01.835Z,10.70
2022-09-22T07:17:52.550Z,10.80
2022-09-22T07:20:37.684Z,10.90
2022-09-22T07:23:27.524Z,11.00
2022-09-22T07:26:21.844Z,11.10
2022-09-22T07:29:11.695Z,11.10
2022-09-22T07:31:59.073Z,11.20
2022-09-22T07:34:45.073Z,11.30
2022-09-22T07:37:33.488Z,11.40
2022-09-22T07:40:19.159Z,11.50
2022-09-22T07:43:04.264Z,11.60
2022-09-22T07:45:59.599Z,11.70
2022-09-22T07:48:48.302Z,11.80
2022-09-22T07:51:34.008Z,11.90
2022-09-22T07:54:19.421Z,12.00
2022-09-22T07:57:10.891Z,12.00
2022-09-22T07:59:57.512Z,12.10
2022-09-22T08:02:50.519Z,12.30
2022-09-22T08:05:36.095Z,12.40
2022-09-22T08:08:21.296Z,12.40
2022-09-22T08:11:09.259Z,12.50
2022-09-22T08:14:00.171Z,12.60
2022-09-22T08:16:48.911Z,12.60
2022-09-22T08:19:37.461Z,12.70
2022-09-22T08:22:23.224Z,12.80
2022-09-22T08:25:12.423Z,12.90
2022-09-22T08:28:00.213Z,13.00
2022-09-22T08:30:46.908Z,13.20
2022-09-22T08:33:32.602Z,13.20
2022-09-22T08:36:20.047Z,13.30
2022-09-22T08:39:09.148Z,13.50
2022-09-22T08:42:22.000Z,13.60
2022-09-22T08:45:24.819Z,13.80
2022-09-22T08:48:44.200Z,13.90
2022-09-22T08:51:55.056Z,14.00
2022-09-22T08:54:40.255Z,14.10
2022-09-22T08:57:39.121Z,14.30
2022-09-22T09:00:25.587Z,14.40
2022-09-22T09:03:46.884Z,14.50
2022-09-22T09:06:45.596Z,14.70
2022-09-22T09:09:50.199Z,14.80
2022-09-22T09:12:44.127Z,14.90
2022-09-22T09:15:53.308Z,15.00
2022-09-22T09:18:44.826Z,15.10
2022-09-22T09:21:34.984Z,15.20
2022-09-22T09:27:54.905Z,15.40
2022-09-22T09:30:45.493Z,15.50
2022-09-22T09:33:56.827Z,15.70
2022-09-22T09:36:45.649Z,15.70
2022-09-22T09:39:33.582Z,15.90
2022-09-22T09:42:33.163Z,16.00
2022-09-22T09:45:24.241Z,16.10
2022-09-22T09:48:30.029Z,16.20
2022-09-22T09:51:15.890Z,16.30
2022-09-22T09:54:05.557Z,16.30
2022-09-22T09:57:05.012Z,16.40
2022-09-22T10:00:32.415Z,16.60
2022-09-22T10:03:28.721Z,16.70
2022-09-22T10:06:23.109Z,16.90
2022-09-22T10:09:08.915Z,17.00
2022-09-22T10:12:01.914Z,17.10
2022-09-22T10:14:56.970Z,17.20
2022-09-22T10:17:45.074Z,17.30
2022-09-22T10:20:34.408Z,17.40
2022-09-22T10:23:22.076Z,17.50
2022-09-22T10:26:37.115Z,17.70
2022-09-22T10:29:23.076Z,17.80
2022-09-22T10:32:15.519Z,17.80
2022-09-22T10:35:01.043Z,18.00
2022-09-22T10:37:47.552Z,18.30
2022-09-22T10:40:32.789Z,18.40
2022-09-22T10:43:46.436Z,18.50
2022-09-22T10:46:37.494Z,18.70
2022-09-22T10:49:23.803Z,18.90
2022-09-22T10:52:35.398Z,19.10
2022-09-22T10:55:32.430Z,19.10
2022-09-22T10:58:27.345Z,19.30
2022-09-22T11:01:34.428Z,19.60
2022-09-22T11:04:47.905Z,19.90
2022-09-22T11:08:16.003Z,20.00
2022-09-22T11:11:29.195Z,20.40
2022-09-22T11:14:30.306Z,20.90
2022-09-22T11:17:56.266Z,21.40
2022-09-22T11:20:44.856Z,21.80
2022-09-22T11:23:57.011Z,22.70
2022-09-22T11:26:57.108Z,23.20
2022-09-22T11:30:11.374Z,24.30
2022-09-22T11:33:25.957Z,25.30
2022-09-22T11:36:40.571Z,26.00
2022-09-22T11:39:54.515Z,26.50
2022-09-22T11:42:52.315Z,26.80
2022-09-22T11:46:01.410Z,27.40
2022-09-22T11:49:01.911Z,27.50
2022-09-22T11:52:10.152Z,27.60
2022-09-22T11:55:00.442Z,27.90
2022-09-22T11:57:53.911Z,28.10
2022-09-22T12:00:50.211Z,27.80
2022-09-22T12:04:12.936Z,28.30
2022-09-22T12:07:00.271Z,28.80
2022-09-22T12:09:59.043Z,28.90
2022-09-22T12:12:48.599Z,29.00
2022-09-22T12:16:07.049Z,29.00
2022-09-22T12:19:25.306Z,29.80
2022-09-22T12:22:32.594Z,30.20
2022-09-22T12:25:50.691Z,30.70
2022-09-22T12:28:45.469Z,31.30
2022-09-22T12:31:42.664Z,31.40
2022-09-22T12:34:44.111Z,31.80
2022-09-22T12:37:32.541Z,32.30
2022-09-22T12:40:25.023Z,32.30
2022-09-22T12:43:21.202Z,31.80
2022-09-22T12:46:30.227Z,31.80
2022-09-22T12:49:21.343Z,32.20
2022-09-22T12:52:42.419Z,32.20
2022-09-22T12:55:30.529Z,31.90
2022-09-22T12:58:18.749Z,31.70
2022-09-22T13:01:30.077Z,31.90
2022-09-22T13:04:18.088Z,31.80
2022-09-22T13:07:03.916Z,31.80
2022-09-22T13:09:49.127Z,31.90
2022-09-22T13:12:34.783Z,32.20
2022-09-22T13:15:20.200Z,32.40
2022-09-22T13:18:33.607Z,32.80
2022-09-22T13:21:30.804Z,33.40
2022-09-22T13:24:26.454Z,34.00
2022-09-22T13:27:14.227Z,34.40
2022-09-22T13:29:59.692Z,33.70
2022-09-22T13:32:50.532Z,33.10
2022-09-22T13:35:41.874Z,33.20
2022-09-22T13:38:28.378Z,33.00
2022-09-22T13:41:21.376Z,32.50
2022-09-22T13:44:11.909Z,32.50
2022-09-22T13:47:00.763Z,32.60
2022-09-22T13:50:01.159Z,33.20
2022-09-22T13:52:48.716Z,34.10
2022-09-22T13:55:35.952Z,34.50
2022-09-22T13:58:41.763Z,34.60
2022-09-22T14:01:28.740Z,35.50
2022-09-22T14:04:34.250Z,35.60
2022-09-22T14:07:21.901Z,34.20
2022-09-22T14:10:09.179Z,34.60
2022-09-22T14:12:57.800Z,34.50
2022-09-22T14:15:43.957Z,34.90
2022-09-22T14:18:30.298Z,34.80
2022-09-22T14:21:36.696Z,34.80
2022-09-22T14:24:22.212Z,34.50
2022-09-22T14:27:17.592Z,33.50
2022-09-22T14:30:04.445Z,32.10
2022-09-22T14:32:55.367Z,32.10
2022-09-22T14:35:41.551Z,31.60
2022-09-22T14:38:29.070Z,31.00
2022-09-22T14:41:26.126Z,31.30
2022-09-22T14:44:41.112Z,32.30
2022-09-22T14:47:29.540Z,32.60
2022-09-22T14:50:37.080Z,32.40
2022-09-22T14:53:32.032Z,33.00
2022-09-22T14:56:23.395Z,33.30
2022-09-22T14:59:41.176Z,33.40
2022-09-22T15:02:33.326Z,33.40
2022-09-22T15:05:29.392Z,33.30
2022-09-22T15:08:20.411Z,33.40
2022-09-22T15:11:05.884Z,33.80
2022-09-22T15:13:52.705Z,34.20
2022-09-22T15:16:41.354Z,34.40
2022-09-22T15:19:26.698Z,34.60
2022-09-22T15:22:16.923Z,34.40
2022-09-22T15:25:02.202Z,34.70
2022-09-22T15:27:53.407Z,34.50
2022-09-22T15:30:39.147Z,33.80
2022-09-22T15:33:24.651Z,33.00
2022-09-22T15:36:22.804Z,32.40
2022-09-22T15:39:20.530Z,31.50
2022-09-22T15:42:09.757Z,30.20
2022-09-22T15:44:56.857Z,28.80
2022-09-22T15:47:44.727Z,27.80
2022-09-22T15:50:30.620Z,27.10
2022-09-22T15:53:18.626Z,27.20
2022-09-22T15:56:09.200Z,27.60
2022-09-22T15:58:58.255Z,27.80
2022-09-22T16:01:45.799Z,27.50
2022-09-22T16:04:34.290Z,27.20
2022-09-22T16:07:20.547Z,26.80
2022-09-22T16:10:05.762Z,26.50
2022-09-22T16:12:51.114Z,26.00
2022-09-22T16:15:36.523Z,25.50
2022-09-22T16:18:22.274Z,25.10
2022-09-22T16:21:17.286Z,24.70
2022-09-22T16:24:08.288Z,24.40
2022-09-22T16:26:54.185Z,24.00
2022-09-22T16:29:39.492Z,23.60
2022-09-22T16:32:26.198Z,23.30
2022-09-22T16:35:12.155Z,23.00
2022-09-22T16:37:57.260Z,22.60
2022-09-22T16:40:42.838Z,22.40
2022-09-22T16:43:28.386Z,22.10
2022-09-22T16:46:27.190Z,21.90
2022-09-22T16:49:16.036Z,21.60
2022-09-22T16:52:01.597Z,21.50
2022-09-22T16:54:49.539Z,21.30
2022-09-22T16:57:34.895Z,21.10
2022-09-22T17:00:20.224Z,20.90
2022-09-22T17:03:05.636Z,20.70
2022-09-22T17:06:01.770Z,20.50
2022-09-22T17:08:52.732Z,20.40
2022-09-22T17:11:41.770Z,20.10
2022-09-22T17:14:27.899Z,19.90
2022-09-22T17:17:13.746Z,19.70
2022-09-22T17:19:59.541Z,19.50
2022-09-22T17:22:46.879Z,19.40
2022-09-22T17:25:32.231Z,19.20
2022-09-22T17:28:17.699Z,19.00
2022-09-22T17:31:06.987Z,18.90
2022-09-22T17:33:55.255Z,18.80
2022-09-22T17:36:40.875Z,18.60
2022-09-22T17:39:28.686Z,18.40
2022-09-22T17:42:15.423Z,18.30
2022-09-22T17:45:01.171Z,18.10
2022-09-22T17:48:04.999Z,18.00
2022-09-22T17:51:09.068Z,17.90
2022-09-22T17:54:16.135Z,17.80
2022-09-22T17:57:01.422Z,17.60
2022-09-22T17:59:47.363Z,17.50
2022-09-22T18:02:36.702Z,17.40
2022-09-22T18:05:26.856Z,17.30
2022-09-22T18:08:18.066Z,17.20
2022-09-22T18:11:03.815Z,17.10
2022-09-22T18:13:50.534Z,17.00
2022-09-22T18:16:36.167Z,16.90
2022-09-22T18:19:21.767Z,16.80
2022-09-22T18:22:10.815Z,16.80
2022-09-22T18:24:56.471Z,16.80
2022-09-22T18:27:42.108Z,16.70
2022-09-22T18:30:28.248Z,16.70
2022-09-22T18:33:14.200Z,16.60
2022-09-22T18:35:59.427Z,16.50
2022-09-22T18:38:45.201Z,16.50
2022-09-22T18:41:32.523Z,16.40
2022-09-22T18:44:19.259Z,16.40
2022-09-22T18:47:05.741Z,16.30
2022-09-22T18:49:54.284Z,16.30
2022-09-22T18:52:45.831Z,16.20
2022-09-22T18:55:34.789Z,16.20
2022-09-22T18:58:20.775Z,16.10
2022-09-22T19:01:06.171Z,16.00
2022-09-22T19:03:52.175Z,16.00
2022-09-22T19:06:55.811Z,15.90
2022-09-22T19:09:41.956Z,15.90
2022-09-22T19:12:27.275Z,15.90
2022-09-22T19:15:15.073Z,15.80
2022-09-22T19:18:06.216Z,15.80
2022-09-22T19:20:51.390Z,15.80
2022-09-22T19:23:41.580Z,15.70
2022-09-22T19:26:28.187Z,15.70
2022-09-22T19:29:13.591Z,15.60
2022-09-22T19:32:03.209Z,15.60
2022-09-22T19:34:52.505Z,15.60
2022-09-22T19:37:38.016Z,15.50
2022-09-22T19:40:25.233Z,15.50
2022-09-22T19:43:10.652Z,15.40
2022-09-22T19:45:56.079Z,15.40
2022-09-22T19:48:44.588Z,15.40
2022-09-22T19:51:31.759Z,15.40
2022-09-22T19:54:16.975Z,15.30
2022-09-22T19:57:02.592Z,15.20
2022-09-22T19:59:48.546Z,15.20
2022-09-22T20:02:33.612Z,15.10
2022-09-22T20:05:21.527Z,15.10
2022-09-22T20:08:15.965Z,15.10
2022-09-22T20:11:26.380Z,15.10
2022-09-22T20:14:22.750Z,15.00
2022-09-22T20:17:09.057Z,14.90
2022-09-22T20:19:55.227Z,14.80
2022-09-22T20:22:42.006Z,14.80
2022-09-22T20:25:29.939Z,14.80
2022-09-22T20:28:15.203Z,14.80
2022-09-22T20:31:01.823Z,14.80
2022-09-22T20:33:48.521Z,14.70
2022-09-22T20:36:37.071Z,14.60
2022-09-22T20:39:23.027Z,14.60
2022-09-22T20:42:08.939Z,14.50
2022-09-22T20:44:55.006Z,14.40
2022-09-22T20:47:40.427Z,14.40
2022-09-22T20:50:28.919Z,14.40
2022-09-22T20:53:14.358Z,14.30
2022-09-22T20:56:11.647Z,14.30
2022-09-22T20:58:57.056Z,14.20
2022-09-22T21:01:42.329Z,14.10
2022-09-22T21:04:29.082Z,14.10
2022-09-22T21:07:17.036Z,14.10
2022-09-22T21:10:20.704Z,14.10
2022-09-22T21:13:06.417Z,14.00
2022-09-22T21:16:03.609Z,14.00
2022-09-22T21:18:51.573Z,14.00
2022-09-22T21:21:39.547Z,14.00
2022-09-22T21:24:29.451Z,13.90
2022-09-22T21:27:15.237Z,13.90
2022-09-22T21:30:00.433Z,13.90
2022-09-22T21:32:46.304Z,13.80
2022-09-22T21:35:31.753Z,13.80
2022-09-22T21:38:17.361Z,13.80
2022-09-22T21:41:08.266Z,13.70
2022-09-22T21:43:57.367Z,13.70
2022-09-22T21:46:44.230Z,13.70
2022-09-22T21:49:29.976Z,13.60
2022-09-22T21:52:16.363Z,13.60
2022-09-22T21:55:02.022Z,13.60
2022-09-22T21:57:47.732Z,13.60
2022-09-22T22:00:51.279Z,13.60
2022-09-22T22:03:42.357Z,13.50
2022-09-22T22:06:34.465Z,13.50
2022-09-22T22:09:22.374Z,13.50
2022-09-22T22:12:09.280Z,13.50
2022-09-22T22:14:57.925Z,13.50
2022-09-22T22:17:43.618Z,13.50
2022-09-22T22:20:30.184Z,13.40
2022-09-22T22:23:15.377Z,13.40
2022-09-22T22:26:09.917Z,13.50
2022-09-22T22:28:55.055Z,13.50
2022-09-22T22:31:44.390Z,13.50
2022-09-22T22:34:30.384Z,13.50
2022-09-22T22:37:16.432Z,13.50
2022-09-22T22:40:01.783Z,13.50
2022-09-22T22:42:47.581Z,13.50
2022-09-22T22:45:32.740Z,13.50
2022-09-22T22:48:18.359Z,13.50
2022-09-22T22:51:09.066Z,13.50
2022-09-22T22:53:57.372Z,13.50
2022-09-22T22:56:45.073Z,13.50
2022-09-22T22:59:36.127Z,13.50
2022-09-22T23:02:25.539Z,13.40
2022-09-22T23:05:12.079Z,13.40
2022-09-22T23:07:57.536Z,13.40
2022-09-22T23:10:43.217Z,13.40
2022-09-22T23:13:38.116Z,13.40
2022-09-22T23:16:26.469Z,13.40
2022-09-22T23:19:14.442Z,13.40
2022-09-22T23:22:02.211Z,13.40
2022-09-22T23:24:48.864Z,13.40
2022-09-22T23:27:34.931Z,13.40
2022-09-22T23:30:20.515Z,13.30
2022-09-22T23:33:06.651Z,13.30
2022-09-22T23:35:59.763Z,13.30
2022-09-22T23:38:45.046Z,13.30
2022-09-22T23:41:31.687Z,13.30
2022-09-22T23:44:16.975Z,13.30
2022-09-22T23:47:03.001Z,13.20
2022-09-22T23:49:48.192Z,13.20
2022-09-22T23:52:33.713Z,13.20
2022-09-22T23:55:19.227Z,13.20
2022-09-22T23:58:08.076Z,13.20
